Terminal Aerodrome Forecast
Issued by NWS Amarillo, TX

Home | Current Version | Previous Version | Text Only | Print | Product List | Glossary On
Versions: 1 2 3 4 5 6 7 8 9 10 11 12 13 14 15 16 17 18 19 20 21 22 23
000
FTUS44 KAMA 180500
TAFAMA
TAF
KAMA 180520Z 1806/1906 14007KT P6SM FEW020
     FM181600 21015KT P6SM SCT070
     FM190000 26014KT P6SM BKN070=

USA.gov is the U.S. government's official web portal to all federal, state and local government web resources and services.